createdAt,value
2022-09-07T00:01:44.387Z,6.53
2022-09-07T00:04:12.207Z,4.10
2022-09-07T00:06:40.063Z,6.25
2022-09-07T00:09:07.774Z,5.00
2022-09-07T00:11:36.008Z,5.05
2022-09-07T00:14:03.727Z,5.80
2022-09-07T00:16:31.806Z,8.75
2022-09-07T00:19:01.898Z,5.93
2022-09-07T00:21:29.894Z,4.35
2022-09-07T00:23:57.769Z,4.40
2022-09-07T00:26:28.478Z,6.15
2022-09-07T00:29:02.006Z,4.93
2022-09-07T00:31:32.866Z,7.35
2022-09-07T00:34:02.206Z,4.45
2022-09-07T00:36:30.312Z,5.30
2022-09-07T00:38:58.555Z,5.40
2022-09-07T00:41:26.286Z,4.78
2022-09-07T00:43:57.062Z,6.65
2022-09-07T00:46:30.056Z,7.63
2022-09-07T00:49:08.651Z,6.65
2022-09-07T00:51:43.807Z,7.43
2022-09-07T00:56:44.228Z,6.38
2022-09-07T00:59:16.543Z,10.55
2022-09-07T01:01:46.891Z,7.80
2022-09-07T01:04:15.578Z,6.38
2022-09-07T01:06:43.609Z,8.25
2022-09-07T01:09:17.684Z,6.50
2022-09-07T01:11:51.032Z,6.53
2022-09-07T01:14:26.514Z,8.38
2022-09-07T01:17:21.288Z,7.45
2022-09-07T01:20:28.762Z,7.00
2022-09-07T01:23:14.747Z,7.03
2022-09-07T01:26:07.265Z,7.40
2022-09-07T01:28:36.656Z,8.40
2022-09-07T01:31:09.140Z,7.78
2022-09-07T01:33:44.403Z,9.45
2022-09-07T01:36:17.985Z,7.75
2022-09-07T01:38:49.125Z,7.32
2022-09-07T01:41:19.371Z,6.10
2022-09-07T01:44:09.773Z,7.57
2022-09-07T01:46:43.180Z,7.03
2022-09-07T01:49:28.340Z,6.60
2022-09-07T01:52:02.308Z,8.48
2022-09-07T01:54:34.091Z,8.90
2022-09-07T01:57:15.653Z,8.05
2022-09-07T01:59:47.440Z,6.78
2022-09-07T02:02:31.340Z,9.52
2022-09-07T02:05:01.806Z,6.50
2022-09-07T02:07:40.389Z,5.93
2022-09-07T02:10:21.231Z,6.57
2022-09-07T02:13:02.180Z,5.93
2022-09-07T02:15:53.648Z,6.68
2022-09-07T02:18:25.800Z,8.50
2022-09-07T02:20:57.112Z,5.80
2022-09-07T02:23:40.956Z,5.68
2022-09-07T02:26:17.115Z,6.18
2022-09-07T02:28:44.825Z,5.88
2022-09-07T02:31:12.489Z,6.80
2022-09-07T02:33:41.555Z,6.30
2022-09-07T02:36:11.398Z,8.07
2022-09-07T02:38:39.031Z,8.02
2022-09-07T02:41:06.735Z,8.57
2022-09-07T02:43:34.405Z,9.32
2022-09-07T02:46:27.279Z,8.57
2022-09-07T02:49:28.501Z,7.68
2022-09-07T02:52:11.877Z,8.88
2022-09-07T02:54:49.456Z,7.55
2022-09-07T02:57:28.867Z,7.43
2022-09-07T03:00:09.615Z,7.60
2022-09-07T03:02:51.917Z,7.47
2022-09-07T03:05:31.325Z,9.52
2022-09-07T03:08:17.067Z,7.80
2022-09-07T03:10:45.095Z,8.65
2022-09-07T03:13:27.621Z,8.90
2022-09-07T03:15:56.359Z,8.02
2022-09-07T03:18:27.853Z,8.77
2022-09-07T03:20:56.026Z,10.25
2022-09-07T03:23:23.961Z,9.63
2022-09-07T03:25:51.662Z,9.38
2022-09-07T03:28:19.253Z,9.55
2022-09-07T03:30:52.292Z,10.02
2022-09-07T03:33:19.885Z,9.88
2022-09-07T03:35:58.290Z,11.05
2022-09-07T03:38:25.894Z,10.48
2022-09-07T03:41:01.568Z,10.35
2022-09-07T03:43:29.974Z,10.02
2022-09-07T03:46:02.107Z,11.27
2022-09-07T03:48:34.427Z,10.40
2022-09-07T03:51:05.569Z,9.98
2022-09-07T03:53:38.900Z,9.52
2022-09-07T03:56:14.115Z,10.48
2022-09-07T03:58:42.403Z,10.20
2022-09-07T04:01:18.855Z,11.13
2022-09-07T04:03:48.208Z,11.60
2022-09-07T04:07:08.584Z,13.32
2022-09-07T04:10:18.038Z,10.90
2022-09-07T04:12:45.823Z,10.85
2022-09-07T04:15:13.538Z,11.07
2022-09-07T04:18:36.072Z,11.02
2022-09-07T04:21:10.002Z,11.40
2022-09-07T04:23:42.567Z,12.40
2022-09-07T04:26:20.524Z,13.15
2022-09-07T04:32:15.032Z,19.83
2022-09-07T04:34:46.526Z,20.30
2022-09-07T04:37:24.347Z,14.85
2022-09-07T04:40:17.880Z,16.50
2022-09-07T04:42:55.088Z,11.63
2022-09-07T04:45:26.455Z,12.35
2022-09-07T04:48:14.002Z,12.07
2022-09-07T04:51:10.928Z,12.70
2022-09-07T04:53:38.908Z,13.82
2022-09-07T04:56:06.906Z,12.35
2022-09-07T04:59:23.042Z,11.70
2022-09-07T05:01:49.260Z,12.27
2022-09-07T05:04:30.781Z,13.23
2022-09-07T05:07:25.685Z,11.65
2022-09-07T05:10:05.785Z,16.10
2022-09-07T05:12:33.334Z,12.43
2022-09-07T05:15:01.685Z,12.45
2022-09-07T05:17:31.175Z,12.15
2022-09-07T05:20:05.867Z,11.93
2022-09-07T05:22:41.055Z,13.13
2022-09-07T05:25:09.659Z,13.75
2022-09-07T05:27:39.604Z,15.52
2022-09-07T05:30:08.257Z,17.23
2022-09-07T05:32:39.245Z,11.27
2022-09-07T05:35:07.082Z,10.20
2022-09-07T05:37:35.005Z,11.10
2022-09-07T05:40:03.367Z,12.20
2022-09-07T05:42:32.742Z,8.85
2022-09-07T05:45:00.572Z,10.55
2022-09-07T05:47:30.458Z,9.70
2022-09-07T05:49:58.130Z,7.88
2022-09-07T05:52:25.927Z,7.47
2022-09-07T05:55:13.103Z,8.55
2022-09-07T05:57:48.255Z,9.18
2022-09-07T06:00:17.065Z,8.43
2022-09-07T06:02:45.010Z,8.30
2022-09-07T06:05:12.768Z,8.77
2022-09-07T06:07:40.726Z,8.73
2022-09-07T06:12:57.784Z,9.90
2022-09-07T06:15:25.504Z,10.23
2022-09-07T06:17:53.990Z,7.82
2022-09-07T06:20:21.741Z,8.40
2022-09-07T06:22:49.568Z,9.98
2022-09-07T06:25:17.794Z,9.90
2022-09-07T06:27:49.409Z,7.47
2022-09-07T06:30:17.057Z,8.57
2022-09-07T06:32:45.217Z,7.70
2022-09-07T06:35:14.694Z,7.40
2022-09-07T06:37:43.004Z,9.05
2022-09-07T06:40:12.018Z,7.95
2022-09-07T06:42:45.807Z,7.25
2022-09-07T06:45:16.391Z,7.10
2022-09-07T06:47:44.103Z,10.38
2022-09-07T06:50:12.511Z,7.75
2022-09-07T06:55:30.803Z,6.80
2022-09-07T06:57:58.495Z,9.35
2022-09-07T07:04:23.409Z,8.25
2022-09-07T07:06:51.129Z,9.63
2022-09-07T07:14:49.824Z,7.65
2022-09-07T07:17:34.467Z,8.30
2022-09-07T07:20:22.483Z,8.67
2022-09-07T07:22:52.212Z,7.75
2022-09-07T07:25:22.882Z,8.82
2022-09-07T07:27:51.086Z,6.88
2022-09-07T07:30:19.922Z,6.60
2022-09-07T07:32:48.237Z,10.45
2022-09-07T07:35:16.141Z,5.95
2022-09-07T07:37:43.686Z,4.70
2022-09-07T07:42:41.673Z,6.85
2022-09-07T07:47:58.204Z,8.18
2022-09-07T07:50:33.920Z,5.57
2022-09-07T07:55:49.565Z,5.03
2022-09-07T07:58:17.480Z,6.82
2022-09-07T08:01:00.704Z,5.80
2022-09-07T08:03:29.059Z,4.97
2022-09-07T08:05:57.169Z,2.65
2022-09-07T08:08:24.956Z,3.58
2022-09-07T08:10:55.290Z,7.15
2022-09-07T08:14:15.018Z,3.78
2022-09-07T08:17:00.939Z,2.25
2022-09-07T08:19:31.800Z,3.67
2022-09-07T08:22:03.145Z,1.50
2022-09-07T08:25:12.037Z,2.70
2022-09-07T08:27:47.133Z,2.38
2022-09-07T08:30:18.848Z,1.50
2022-09-07T08:32:49.303Z,1.45
2022-09-07T08:35:20.252Z,2.83
2022-09-07T08:37:47.619Z,2.90
2022-09-07T08:40:19.232Z,2.47
2022-09-07T08:43:15.908Z,3.83
2022-09-07T08:45:50.481Z,3.83
2022-09-07T08:48:23.466Z,2.90
2022-09-07T08:50:58.595Z,2.33
2022-09-07T08:53:27.027Z,3.38
2022-09-07T08:56:14.920Z,3.10
2022-09-07T08:58:54.682Z,1.60
2022-09-07T09:01:31.058Z,2.22
2022-09-07T09:04:15.957Z,1.55
2022-09-07T09:07:25.622Z,2.15
2022-09-07T09:10:14.237Z,4.25
2022-09-07T09:13:25.806Z,2.28
2022-09-07T09:16:10.322Z,1.63
2022-09-07T09:19:07.470Z,4.32
2022-09-07T09:21:48.143Z,5.82
2022-09-07T09:24:20.024Z,3.38
2022-09-07T09:26:51.682Z,3.08
2022-09-07T09:29:21.832Z,3.10
2022-09-07T09:31:49.623Z,3.15
2022-09-07T09:34:21.167Z,3.10
2022-09-07T09:36:55.685Z,2.10
2022-09-07T09:40:12.206Z,2.83
2022-09-07T09:42:42.264Z,1.85
2022-09-07T09:45:17.030Z,1.92
2022-09-07T09:47:50.989Z,1.35
2022-09-07T09:53:24.734Z,4.32
2022-09-07T09:55:54.028Z,2.60
2022-09-07T10:01:35.344Z,2.63
2022-09-07T10:04:30.252Z,2.92
2022-09-07T10:07:14.638Z,2.43
2022-09-07T10:09:50.435Z,2.65
2022-09-07T10:12:36.215Z,4.03
2022-09-07T10:15:06.900Z,4.15
2022-09-07T10:17:37.021Z,2.75
2022-09-07T10:20:15.519Z,3.03
2022-09-07T10:22:58.741Z,3.22
2022-09-07T10:25:37.730Z,5.88
2022-09-07T10:28:13.781Z,2.25
2022-09-07T10:31:17.207Z,2.53
2022-09-07T10:36:58.871Z,3.63
2022-09-07T10:39:34.357Z,2.35
2022-09-07T10:42:07.777Z,3.45
2022-09-07T10:45:38.974Z,4.10
2022-09-07T10:48:24.439Z,2.35
2022-09-07T10:51:00.048Z,3.95
2022-09-07T10:53:46.635Z,3.65
2022-09-07T10:56:26.771Z,3.05
2022-09-07T10:59:02.136Z,3.15
2022-09-07T11:01:36.924Z,3.45
2022-09-07T11:04:29.034Z,3.43
2022-09-07T11:07:22.889Z,4.22
2022-09-07T11:10:04.652Z,3.53
2022-09-07T11:12:39.391Z,5.57
2022-09-07T11:17:52.183Z,2.20
2022-09-07T11:20:35.797Z,2.05
2022-09-07T11:23:22.651Z,4.80
2022-09-07T11:26:14.628Z,3.30
2022-09-07T11:31:52.336Z,3.22
2022-09-07T11:34:45.871Z,3.13
2022-09-07T11:37:19.212Z,4.43
2022-09-07T11:39:53.679Z,3.33
2022-09-07T11:42:50.090Z,2.90
2022-09-07T11:45:43.343Z,2.15
2022-09-07T11:48:32.591Z,4.05
2022-09-07T11:51:06.108Z,2.33
2022-09-07T12:20:24.191Z,5.40
2022-09-07T12:23:48.513Z,2.50
2022-09-07T12:27:36.537Z,4.50
2022-09-07T12:31:57.706Z,4.38
2022-09-07T12:55:31.443Z,3.22
2022-09-07T12:58:37.277Z,3.97
2022-09-07T13:01:12.871Z,3.75
2022-09-07T13:04:09.538Z,5.15
2022-09-07T13:09:44.696Z,5.18
2022-09-07T13:12:56.834Z,4.68
2022-09-07T13:15:53.588Z,3.45
2022-09-07T13:18:28.978Z,4.68
2022-09-07T13:21:08.448Z,6.35
2022-09-07T13:23:53.365Z,5.20
2022-09-07T13:27:00.678Z,7.88
2022-09-07T13:33:38.029Z,3.85
2022-09-07T13:36:09.469Z,3.80
2022-09-07T13:38:54.101Z,5.53
2022-09-07T13:42:27.149Z,6.38
2022-09-07T13:45:00.149Z,3.42
2022-09-07T13:47:33.273Z,5.60
2022-09-07T13:53:57.246Z,6.55
2022-09-07T13:56:39.138Z,4.45
2022-09-07T14:03:18.205Z,3.83
2022-09-07T14:05:48.234Z,3.75
2022-09-07T14:08:29.833Z,5.45
2022-09-07T14:11:02.782Z,4.57
2022-09-07T14:17:37.973Z,3.63
2022-09-07T14:24:56.536Z,6.35
2022-09-07T14:28:09.001Z,4.35
2022-09-07T14:30:53.086Z,4.45
2022-09-07T14:33:27.089Z,6.22
2022-09-07T14:39:50.819Z,3.83
2022-09-07T14:42:52.631Z,4.18
2022-09-07T14:47:53.066Z,5.50
2022-09-07T14:49:31.056Z,8.07
2022-09-07T14:52:05.058Z,5.30
2022-09-07T14:54:34.367Z,5.70
2022-09-07T14:58:09.038Z,4.53
2022-09-07T15:04:21.032Z,5.65
2022-09-07T15:07:04.036Z,3.78
2022-09-07T15:09:38.370Z,4.80
2022-09-07T15:16:26.919Z,3.47
2022-09-07T15:19:04.936Z,4.22
2022-09-07T15:21:35.559Z,5.45
2022-09-07T15:24:22.413Z,6.72
2022-09-07T15:33:12.781Z,4.18
2022-09-07T15:35:50.801Z,4.55
2022-09-07T15:49:16.680Z,8.02
2022-09-07T15:55:40.727Z,5.43
2022-09-07T18:18:00.442Z,7.20
2022-09-07T22:23:13.877Z,10.05
